CGJBF CYYR-CYJT
Flight info
| Callsign | CGJBF |
|---|---|
| Flight time | N/A |
| Altitude | 28000 |
| Route | NUDOV/N0305F290 |
| Aircraft | TBM8/L-SDFGRWY/S |
Departure
| Time | 2026-05-04 18:29 |
|---|---|
| Airport | Goose Bay Airport (CYYR) |
Arrival
| Time | N/A |
|---|---|
| Airport | Stephenville Dymond International Airport (CYJT) |
| Time | Latitude | Longitude | Altitude | Speed | Heading |
|---|---|---|---|---|---|
| 2026-05-04 18:09 | 53.31100 | -60.40767 | 152 ft | 0 kts | 226° |
| 2026-05-04 18:20 | 53.31100 | -60.40768 | 152 ft | 1 kts | 226° |
| 2026-05-04 18:21 | 53.31073 | -60.40785 | 152 ft | 8 kts | 147° |
| 2026-05-04 18:21 | 53.31037 | -60.40723 | 152 ft | 12 kts | 130° |
| 2026-05-04 18:21 | 53.30967 | -60.40597 | 152 ft | 15 kts | 131° |
| 2026-05-04 18:22 | 53.30927 | -60.40493 | 152 ft | 11 kts | 74° |
| 2026-05-04 18:22 | 53.30916 | -60.40360 | 152 ft | 13 kts | 95° |
| 2026-05-04 18:22 | 53.30970 | -60.40251 | 152 ft | 12 kts | 43° |
| 2026-05-04 18:22 | 53.31033 | -60.40171 | 152 ft | 10 kts | 2° |
| 2026-05-04 18:23 | 53.31089 | -60.40247 | 152 ft | 12 kts | 313° |
| 2026-05-04 18:23 | 53.31148 | -60.40351 | 152 ft | 13 kts | 311° |
| 2026-05-04 18:23 | 53.31211 | -60.40465 | 152 ft | 14 kts | 311° |
| 2026-05-04 18:23 | 53.31281 | -60.40581 | 152 ft | 14 kts | 324° |
| 2026-05-04 18:24 | 53.31364 | -60.40652 | 152 ft | 13 kts | 335° |
| 2026-05-04 18:24 | 53.31440 | -60.40730 | 152 ft | 13 kts | 317° |
| 2026-05-04 18:24 | 53.31504 | -60.40840 | 152 ft | 13 kts | 314° |
| 2026-05-04 18:24 | 53.31552 | -60.40968 | 152 ft | 14 kts | 281° |
| 2026-05-04 18:25 | 53.31570 | -60.41134 | 153 ft | 15 kts | 281° |
| 2026-05-04 18:25 | 53.31590 | -60.41313 | 153 ft | 16 kts | 278° |
| 2026-05-04 18:25 | 53.31558 | -60.41490 | 153 ft | 18 kts | 236° |
| 2026-05-04 18:25 | 53.31486 | -60.41679 | 156 ft | 21 kts | 234° |
| 2026-05-04 18:26 | 53.31398 | -60.41891 | 153 ft | 24 kts | 235° |
| 2026-05-04 18:26 | 53.31300 | -60.42123 | 153 ft | 25 kts | 235° |
| 2026-05-04 18:26 | 53.31196 | -60.42376 | 154 ft | 27 kts | 235° |
| 2026-05-04 18:26 | 53.31085 | -60.42649 | 154 ft | 30 kts | 234° |
| 2026-05-04 18:27 | 53.30956 | -60.42932 | 154 ft | 32 kts | 235° |
| 2026-05-04 18:27 | 53.30824 | -60.43252 | 154 ft | 35 kts | 234° |
| 2026-05-04 18:27 | 53.30741 | -60.43485 | 155 ft | 13 kts | 298° |
| 2026-05-04 18:27 | 53.30796 | -60.43553 | 154 ft | 0 kts | 324° |
| 2026-05-04 18:28 | 53.30801 | -60.43558 | 154 ft | 5 kts | 324° |
| 2026-05-04 18:28 | 53.30882 | -60.43605 | 153 ft | 19 kts | 29° |
| 2026-05-04 18:28 | 53.30982 | -60.43376 | 152 ft | 42 kts | 56° |
| 2026-05-04 18:28 | 53.31249 | -60.42726 | 183 ft | 88 kts | 57° |
| 2026-05-04 18:29 | 53.31607 | -60.41757 | 372 ft | 110 kts | 60° |
| 2026-05-04 18:29 | 53.32007 | -60.40501 | 607 ft | 128 kts | 59° |
| 2026-05-04 18:29 | 53.32484 | -60.39250 | 1099 ft | 127 kts | 53° |
| 2026-05-04 18:29 | 53.32971 | -60.38059 | 1785 ft | 119 kts | 50° |
| 2026-05-04 18:30 | 53.33823 | -60.35767 | 2934 ft | 114 kts | 53° |
| 2026-05-04 18:30 | 53.34054 | -60.34485 | 3398 ft | 124 kts | 85° |
| 2026-05-04 18:30 | 53.33677 | -60.33120 | 3899 ft | 140 kts | 126° |
| 2026-05-04 18:31 | 53.32766 | -60.32452 | 4438 ft | 150 kts | 165° |
| 2026-05-04 18:31 | 53.31741 | -60.32266 | 4979 ft | 146 kts | 163° |
| 2026-05-04 18:31 | 53.30749 | -60.31956 | 5479 ft | 144 kts | 159° |
| 2026-05-04 18:31 | 53.29768 | -60.31662 | 5944 ft | 143 kts | 160° |
| 2026-05-04 18:32 | 53.28782 | -60.31384 | 6368 ft | 144 kts | 163° |
| 2026-05-04 18:32 | 53.27808 | -60.31127 | 6787 ft | 144 kts | 163° |
| 2026-05-04 18:32 | 53.26798 | -60.30870 | 7206 ft | 145 kts | 161° |
| 2026-05-04 18:32 | 53.25801 | -60.30619 | 7636 ft | 145 kts | 164° |
| 2026-05-04 18:33 | 53.24797 | -60.30366 | 8053 ft | 146 kts | 162° |
| 2026-05-04 18:33 | 53.23800 | -60.30113 | 8471 ft | 147 kts | 163° |
| 2026-05-04 18:33 | 53.22785 | -60.29856 | 8907 ft | 148 kts | 164° |
| 2026-05-04 18:33 | 53.21776 | -60.29600 | 9379 ft | 148 kts | 163° |
| 2026-05-04 18:34 | 53.21506 | -60.29536 | 9494 ft | 149 kts | 162° |
| 2026-05-04 18:34 | 53.21246 | -60.29478 | 9612 ft | 149 kts | 163° |
| 2026-05-04 18:34 | 53.20215 | -60.29210 | 10042 ft | 150 kts | 162° |
| 2026-05-04 18:34 | 53.19186 | -60.28930 | 10488 ft | 150 kts | 161° |
| 2026-05-04 18:35 | 53.18150 | -60.28657 | 10898 ft | 151 kts | 161° |
| 2026-05-04 18:35 | 53.17107 | -60.28391 | 11269 ft | 152 kts | 162° |
| 2026-05-04 18:35 | 53.16057 | -60.28127 | 11640 ft | 153 kts | 161° |
| 2026-05-04 18:35 | 53.15004 | -60.27865 | 12018 ft | 153 kts | 161° |
| 2026-05-04 18:36 | 53.13948 | -60.27600 | 12390 ft | 154 kts | 160° |
| 2026-05-04 18:36 | 53.12888 | -60.27332 | 12789 ft | 154 kts | 160° |
| 2026-05-04 18:36 | 53.11823 | -60.27064 | 13189 ft | 155 kts | 160° |
| 2026-05-04 18:36 | 53.10749 | -60.26791 | 13546 ft | 157 kts | 159° |
| 2026-05-04 18:37 | 53.09668 | -60.26515 | 13876 ft | 158 kts | 159° |
| 2026-05-04 18:37 | 53.08579 | -60.26233 | 14211 ft | 159 kts | 159° |
| 2026-05-04 18:37 | 53.07482 | -60.25954 | 14533 ft | 160 kts | 159° |
| 2026-05-04 18:37 | 53.06373 | -60.25678 | 14848 ft | 162 kts | 159° |
| 2026-05-04 18:38 | 53.05257 | -60.25397 | 15166 ft | 163 kts | 158° |
| 2026-05-04 18:38 | 53.04132 | -60.25111 | 15502 ft | 164 kts | 163° |
| 2026-05-04 18:38 | 53.03011 | -60.24836 | 15829 ft | 164 kts | 161° |
| 2026-05-04 18:38 | 53.01872 | -60.24543 | 16138 ft | 166 kts | 160° |
| 2026-05-04 18:39 | 53.00725 | -60.24251 | 16463 ft | 167 kts | 160° |
| 2026-05-04 18:39 | 52.99570 | -60.23958 | 16788 ft | 168 kts | 160° |
| 2026-05-04 18:39 | 52.98408 | -60.23664 | 17119 ft | 170 kts | 160° |
| 2026-05-04 18:39 | 52.97237 | -60.23369 | 17458 ft | 171 kts | 160° |
| 2026-05-04 18:40 | 52.96055 | -60.23072 | 17733 ft | 173 kts | 160° |
| 2026-05-04 18:40 | 52.94852 | -60.22768 | 17982 ft | 177 kts | 160° |
| 2026-05-04 18:40 | 52.93625 | -60.22461 | 18209 ft | 181 kts | 161° |
| 2026-05-04 18:40 | 52.92372 | -60.22148 | 18456 ft | 184 kts | 161° |
| 2026-05-04 18:41 | 52.91096 | -60.21829 | 18707 ft | 187 kts | 161° |
| 2026-05-04 18:41 | 52.89799 | -60.21504 | 18957 ft | 190 kts | 161° |
| 2026-05-04 18:41 | 52.88484 | -60.21174 | 19219 ft | 193 kts | 161° |
| 2026-05-04 18:41 | 52.87168 | -60.20844 | 19463 ft | 195 kts | 162° |
| 2026-05-04 18:42 | 52.85802 | -60.20502 | 19720 ft | 197 kts | 162° |
| 2026-05-04 18:42 | 52.84437 | -60.20160 | 19975 ft | 199 kts | 162° |
| 2026-05-04 18:42 | 52.83080 | -60.19819 | 20229 ft | 201 kts | 162° |
| 2026-05-04 18:42 | 52.81697 | -60.19459 | 20498 ft | 202 kts | 162° |
| 2026-05-04 18:43 | 52.80303 | -60.19096 | 20772 ft | 204 kts | 162° |
| 2026-05-04 18:43 | 52.78900 | -60.18734 | 21030 ft | 205 kts | 162° |
| 2026-05-04 18:43 | 52.77489 | -60.18375 | 21297 ft | 206 kts | 162° |
| 2026-05-04 18:43 | 52.76069 | -60.18017 | 21565 ft | 207 kts | 163° |
| 2026-05-04 18:44 | 52.74647 | -60.17660 | 21844 ft | 207 kts | 163° |
| 2026-05-04 18:44 | 52.74164 | -60.17539 | 21936 ft | 207 kts | 163° |
| 2026-05-04 18:44 | 52.71787 | -60.16941 | 22405 ft | 208 kts | 163° |
| 2026-05-04 18:44 | 52.70818 | -60.16696 | 22586 ft | 209 kts | 163° |
| 2026-05-04 18:45 | 52.69383 | -60.16337 | 22865 ft | 209 kts | 164° |
| 2026-05-04 18:45 | 52.67943 | -60.15980 | 23101 ft | 209 kts | 164° |
| 2026-05-04 18:45 | 52.66489 | -60.15618 | 23247 ft | 214 kts | 164° |
| 2026-05-04 18:45 | 52.65001 | -60.15250 | 23394 ft | 218 kts | 164° |
| 2026-05-04 18:46 | 52.63485 | -60.14879 | 23563 ft | 222 kts | 166° |
| 2026-05-04 18:46 | 52.61942 | -60.14507 | 23707 ft | 225 kts | 165° |
| 2026-05-04 18:46 | 52.60382 | -60.14124 | 23856 ft | 228 kts | 165° |
| 2026-05-04 18:46 | 52.58821 | -60.13736 | 23998 ft | 231 kts | 165° |
| 2026-05-04 18:47 | 52.57226 | -60.13338 | 24146 ft | 233 kts | 165° |
| 2026-05-04 18:47 | 52.55626 | -60.12940 | 24279 ft | 235 kts | 166° |
| 2026-05-04 18:47 | 52.54003 | -60.12537 | 24424 ft | 237 kts | 166° |
| 2026-05-04 18:47 | 52.52368 | -60.12132 | 24571 ft | 238 kts | 166° |
| 2026-05-04 18:48 | 52.50722 | -60.11725 | 24720 ft | 240 kts | 166° |
| 2026-05-04 18:48 | 52.49069 | -60.11316 | 24870 ft | 241 kts | 166° |
| 2026-05-04 18:48 | 52.47410 | -60.10906 | 25019 ft | 242 kts | 166° |
| 2026-05-04 18:48 | 52.45742 | -60.10497 | 25168 ft | 243 kts | 166° |
| 2026-05-04 18:49 | 52.44071 | -60.10087 | 25314 ft | 243 kts | 166° |
| 2026-05-04 18:49 | 52.42393 | -60.09673 | 25476 ft | 244 kts | 166° |
| 2026-05-04 18:49 | 52.40712 | -60.09260 | 25627 ft | 245 kts | 167° |
| 2026-05-04 18:49 | 52.39025 | -60.08846 | 25785 ft | 246 kts | 167° |
| 2026-05-04 18:50 | 52.37331 | -60.08430 | 25943 ft | 246 kts | 167° |
| 2026-05-04 18:50 | 52.35636 | -60.08014 | 26103 ft | 247 kts | 167° |
| 2026-05-04 18:50 | 52.33938 | -60.07599 | 26264 ft | 247 kts | 167° |
| 2026-05-04 18:50 | 52.32237 | -60.07182 | 26431 ft | 247 kts | 167° |
| 2026-05-04 18:51 | 52.30533 | -60.06765 | 26601 ft | 247 kts | 167° |
| 2026-05-04 18:51 | 52.28831 | -60.06348 | 26766 ft | 248 kts | 167° |
| 2026-05-04 18:51 | 52.27128 | -60.05932 | 26923 ft | 248 kts | 167° |
| 2026-05-04 18:51 | 52.25425 | -60.05515 | 27088 ft | 247 kts | 167° |
| 2026-05-04 18:52 | 52.23717 | -60.05097 | 27218 ft | 249 kts | 167° |
| 2026-05-04 18:52 | 52.21984 | -60.04663 | 27232 ft | 255 kts | 167° |
| 2026-05-04 18:52 | 52.20212 | -60.04221 | 27236 ft | 260 kts | 167° |
| 2026-05-04 18:52 | 52.18401 | -60.03776 | 27231 ft | 265 kts | 167° |
| 2026-05-04 18:53 | 52.16561 | -60.03331 | 27230 ft | 270 kts | 167° |
| 2026-05-04 18:53 | 52.14687 | -60.02879 | 27231 ft | 274 kts | 167° |
| 2026-05-04 18:53 | 52.12791 | -60.02422 | 27231 ft | 277 kts | 167° |
| 2026-05-04 18:53 | 52.10870 | -60.01959 | 27229 ft | 280 kts | 167° |
| 2026-05-04 18:54 | 52.08931 | -60.01491 | 27228 ft | 283 kts | 167° |
| 2026-05-04 18:54 | 52.06973 | -60.01019 | 27222 ft | 285 kts | 167° |
| 2026-05-04 18:54 | 52.05002 | -60.00542 | 27222 ft | 287 kts | 167° |
| 2026-05-04 18:54 | 52.03019 | -60.00065 | 27223 ft | 289 kts | 167° |
| 2026-05-04 18:55 | 52.01024 | -59.99584 | 27218 ft | 290 kts | 167° |
| 2026-05-04 18:55 | 51.97009 | -59.98618 | 27221 ft | 293 kts | 167° |
| 2026-05-04 18:55 | 51.94985 | -59.98130 | 27219 ft | 294 kts | 168° |
| 2026-05-04 18:56 | 51.92957 | -59.97643 | 27219 ft | 295 kts | 168° |
| 2026-05-04 18:56 | 51.90924 | -59.97154 | 27208 ft | 296 kts | 168° |
| 2026-05-04 18:56 | 51.88882 | -59.96663 | 27206 ft | 297 kts | 168° |
| 2026-05-04 18:56 | 51.86849 | -59.96176 | 27207 ft | 297 kts | 168° |
| 2026-05-04 18:57 | 51.84804 | -59.95686 | 27220 ft | 298 kts | 168° |
| 2026-05-04 18:57 | 51.82753 | -59.95194 | 27217 ft | 298 kts | 168° |
| 2026-05-04 18:57 | 51.80697 | -59.94702 | 27209 ft | 299 kts | 168° |
| 2026-05-04 18:57 | 51.78637 | -59.94209 | 27205 ft | 299 kts | 168° |
| 2026-05-04 18:58 | 51.76577 | -59.93717 | 27202 ft | 300 kts | 168° |
| 2026-05-04 18:58 | 51.74514 | -59.93224 | 27203 ft | 300 kts | 168° |
| 2026-05-04 18:58 | 51.72449 | -59.92731 | 27200 ft | 300 kts | 168° |
| 2026-05-04 18:58 | 51.70382 | -59.92239 | 27201 ft | 300 kts | 168° |
| 2026-05-04 18:59 | 51.68316 | -59.91747 | 27203 ft | 300 kts | 168° |
| 2026-05-04 18:59 | 51.66246 | -59.91254 | 27204 ft | 301 kts | 168° |
| 2026-05-04 18:59 | 51.64179 | -59.90761 | 27203 ft | 301 kts | 168° |
| 2026-05-04 18:59 | 51.62107 | -59.90269 | 27198 ft | 301 kts | 168° |
| 2026-05-04 19:00 | 51.60037 | -59.89777 | 27192 ft | 301 kts | 168° |
| 2026-05-04 19:00 | 51.57994 | -59.89288 | 27195 ft | 301 kts | 168° |
| 2026-05-04 19:00 | 51.55925 | -59.88799 | 27197 ft | 301 kts | 168° |
| 2026-05-04 19:00 | 51.53851 | -59.88309 | 27201 ft | 301 kts | 169° |
| 2026-05-04 19:01 | 51.51777 | -59.87821 | 27198 ft | 302 kts | 169° |
| 2026-05-04 19:01 | 51.49700 | -59.87331 | 27198 ft | 302 kts | 169° |
| 2026-05-04 19:01 | 51.47619 | -59.86841 | 27198 ft | 303 kts | 169° |
| 2026-05-04 19:01 | 51.45533 | -59.86349 | 27196 ft | 303 kts | 169° |
| 2026-05-04 19:02 | 51.43449 | -59.85858 | 27196 ft | 303 kts | 169° |
| 2026-05-04 19:02 | 51.41364 | -59.85369 | 27193 ft | 303 kts | 169° |
| 2026-05-04 19:02 | 51.39277 | -59.84878 | 27194 ft | 303 kts | 169° |
| 2026-05-04 19:02 | 51.37190 | -59.84387 | 27197 ft | 303 kts | 169° |
| 2026-05-04 19:03 | 51.35105 | -59.83898 | 27198 ft | 303 kts | 169° |
| 2026-05-04 19:03 | 51.33016 | -59.83408 | 27197 ft | 303 kts | 169° |
| 2026-05-04 19:03 | 51.30930 | -59.82919 | 27197 ft | 303 kts | 169° |
| 2026-05-04 19:03 | 51.28843 | -59.82430 | 27197 ft | 303 kts | 169° |
| 2026-05-04 19:04 | 51.26753 | -59.81941 | 27200 ft | 303 kts | 170° |
| 2026-05-04 19:04 | 51.24664 | -59.81448 | 27197 ft | 304 kts | 171° |
| 2026-05-04 19:04 | 51.22576 | -59.80961 | 27193 ft | 304 kts | 171° |
| 2026-05-04 19:04 | 51.20480 | -59.80474 | 27194 ft | 304 kts | 170° |
| 2026-05-04 19:05 | 51.18386 | -59.79988 | 27198 ft | 304 kts | 170° |
| 2026-05-04 19:05 | 51.16288 | -59.79500 | 27194 ft | 305 kts | 171° |
| 2026-05-04 19:05 | 51.14191 | -59.79013 | 27194 ft | 305 kts | 171° |
| 2026-05-04 19:05 | 51.12090 | -59.78525 | 27193 ft | 305 kts | 170° |
| 2026-05-04 19:06 | 51.09991 | -59.78038 | 27196 ft | 305 kts | 170° |
| 2026-05-04 19:06 | 51.07892 | -59.77550 | 27197 ft | 305 kts | 171° |
| 2026-05-04 19:06 | 51.05789 | -59.77062 | 27197 ft | 305 kts | 171° |
| 2026-05-04 19:06 | 51.03687 | -59.76576 | 27197 ft | 305 kts | 171° |
| 2026-05-04 19:07 | 51.01586 | -59.76090 | 27194 ft | 306 kts | 171° |
| 2026-05-04 19:07 | 50.99481 | -59.75603 | 27192 ft | 306 kts | 171° |
| 2026-05-04 19:07 | 50.97376 | -59.75117 | 27192 ft | 306 kts | 171° |
| 2026-05-04 19:07 | 50.95270 | -59.74630 | 27193 ft | 306 kts | 171° |
| 2026-05-04 19:08 | 50.93157 | -59.74143 | 27192 ft | 307 kts | 171° |
| 2026-05-04 19:08 | 50.91045 | -59.73656 | 27193 ft | 307 kts | 171° |
| 2026-05-04 19:08 | 50.88926 | -59.73169 | 27193 ft | 308 kts | 171° |
| 2026-05-04 19:08 | 50.86808 | -59.72683 | 27194 ft | 308 kts | 171° |
| 2026-05-04 19:09 | 50.84688 | -59.72195 | 27193 ft | 308 kts | 171° |
| 2026-05-04 19:09 | 50.82566 | -59.71707 | 27193 ft | 308 kts | 171° |
| 2026-05-04 19:09 | 50.80440 | -59.71220 | 27195 ft | 309 kts | 171° |
| 2026-05-04 19:09 | 50.78316 | -59.70733 | 27195 ft | 309 kts | 171° |
| 2026-05-04 19:10 | 50.76188 | -59.70247 | 27194 ft | 309 kts | 171° |
| 2026-05-04 19:10 | 50.74089 | -59.69768 | 27195 ft | 309 kts | 171° |
| 2026-05-04 19:10 | 50.71963 | -59.69281 | 27196 ft | 309 kts | 171° |
| 2026-05-04 19:10 | 50.69833 | -59.68795 | 27196 ft | 309 kts | 171° |
| 2026-05-04 19:11 | 50.67702 | -59.68307 | 27199 ft | 310 kts | 172° |
| 2026-05-04 19:11 | 50.65566 | -59.67820 | 27197 ft | 310 kts | 172° |
| 2026-05-04 19:11 | 50.63429 | -59.67333 | 27197 ft | 310 kts | 172° |
| 2026-05-04 19:11 | 50.61292 | -59.66849 | 27198 ft | 311 kts | 172° |
| 2026-05-04 19:12 | 50.59149 | -59.66362 | 27200 ft | 311 kts | 173° |
| 2026-05-04 19:12 | 50.54861 | -59.65391 | 27202 ft | 311 kts | 172° |
| 2026-05-04 19:12 | 50.52717 | -59.64906 | 27199 ft | 311 kts | 172° |
| 2026-05-04 19:13 | 50.50573 | -59.64419 | 27199 ft | 312 kts | 172° |
| 2026-05-04 19:13 | 50.48428 | -59.63916 | 27200 ft | 312 kts | 170° |
| 2026-05-04 19:13 | 50.46330 | -59.63014 | 27206 ft | 313 kts | 160° |
| 2026-05-04 19:13 | 50.44351 | -59.61605 | 27206 ft | 313 kts | 153° |
| 2026-05-04 19:14 | 50.42414 | -59.60037 | 27203 ft | 313 kts | 153° |
| 2026-05-04 19:14 | 50.40486 | -59.58448 | 27204 ft | 313 kts | 152° |
| 2026-05-04 19:14 | 50.38556 | -59.56855 | 27201 ft | 314 kts | 153° |
| 2026-05-04 19:14 | 50.36621 | -59.55266 | 27202 ft | 314 kts | 153° |
| 2026-05-04 19:15 | 50.34680 | -59.53677 | 27207 ft | 315 kts | 153° |
| 2026-05-04 19:15 | 50.32738 | -59.52093 | 27218 ft | 315 kts | 153° |
| 2026-05-04 19:15 | 50.30791 | -59.50516 | 27216 ft | 315 kts | 154° |
| 2026-05-04 19:15 | 50.28845 | -59.48944 | 27215 ft | 315 kts | 154° |
| 2026-05-04 19:16 | 50.26894 | -59.47371 | 27218 ft | 315 kts | 154° |
| 2026-05-04 19:16 | 50.24945 | -59.45802 | 27217 ft | 315 kts | 154° |
| 2026-05-04 19:16 | 50.22996 | -59.44233 | 27217 ft | 315 kts | 154° |
| 2026-05-04 19:16 | 50.21044 | -59.42664 | 27217 ft | 315 kts | 154° |
| 2026-05-04 19:17 | 50.19095 | -59.41098 | 27226 ft | 315 kts | 154° |
| 2026-05-04 19:17 | 50.17142 | -59.39531 | 27226 ft | 315 kts | 154° |
| 2026-05-04 19:17 | 50.15194 | -59.37970 | 27226 ft | 315 kts | 154° |
| 2026-05-04 19:17 | 50.13243 | -59.36407 | 27226 ft | 315 kts | 154° |
| 2026-05-04 19:18 | 50.11295 | -59.34847 | 27229 ft | 315 kts | 154° |
| 2026-05-04 19:18 | 50.09344 | -59.33287 | 27229 ft | 315 kts | 154° |
| 2026-05-04 19:18 | 50.07391 | -59.31728 | 27234 ft | 315 kts | 154° |
| 2026-05-04 19:18 | 50.05441 | -59.30169 | 27233 ft | 315 kts | 154° |
| 2026-05-04 19:19 | 50.03494 | -59.28605 | 27237 ft | 315 kts | 155° |
| 2026-05-04 19:19 | 50.01541 | -59.27054 | 27238 ft | 316 kts | 154° |
| 2026-05-04 19:19 | 49.99586 | -59.25503 | 27243 ft | 316 kts | 154° |
| 2026-05-04 19:19 | 49.97627 | -59.23947 | 27242 ft | 316 kts | 154° |
| 2026-05-04 19:20 | 49.95673 | -59.22394 | 27246 ft | 316 kts | 155° |
| 2026-05-04 19:20 | 49.93709 | -59.20836 | 27249 ft | 317 kts | 155° |
| 2026-05-04 19:20 | 49.91741 | -59.19277 | 27070 ft | 322 kts | 155° |
| 2026-05-04 19:20 | 49.89712 | -59.17688 | 26677 ft | 331 kts | 155° |
| 2026-05-04 19:21 | 49.87635 | -59.16063 | 26289 ft | 336 kts | 155° |
| 2026-05-04 19:21 | 49.85549 | -59.14421 | 25905 ft | 337 kts | 155° |
| 2026-05-04 19:21 | 49.83460 | -59.12772 | 25527 ft | 337 kts | 155° |
| 2026-05-04 19:21 | 49.81371 | -59.11127 | 25157 ft | 336 kts | 155° |
| 2026-05-04 19:22 | 49.79284 | -59.09485 | 24786 ft | 336 kts | 155° |
| 2026-05-04 19:22 | 49.77198 | -59.07840 | 24433 ft | 337 kts | 155° |
| 2026-05-04 19:22 | 49.75110 | -59.06195 | 24065 ft | 337 kts | 155° |
| 2026-05-04 19:22 | 49.73015 | -59.04550 | 23710 ft | 338 kts | 155° |
| 2026-05-04 19:23 | 49.70917 | -59.02904 | 23340 ft | 340 kts | 156° |
| 2026-05-04 19:23 | 49.68796 | -59.01243 | 22989 ft | 342 kts | 156° |
| 2026-05-04 19:23 | 49.66669 | -58.99583 | 22605 ft | 343 kts | 156° |
| 2026-05-04 19:23 | 49.64542 | -58.97925 | 22197 ft | 344 kts | 156° |
| 2026-05-04 19:24 | 49.62404 | -58.96259 | 21787 ft | 345 kts | 156° |
| 2026-05-04 19:24 | 49.60260 | -58.94590 | 21377 ft | 345 kts | 156° |
| 2026-05-04 19:24 | 49.58123 | -58.92923 | 20975 ft | 344 kts | 156° |
| 2026-05-04 19:24 | 49.55990 | -58.91263 | 20580 ft | 343 kts | 156° |
| 2026-05-04 19:25 | 49.53861 | -58.89606 | 20185 ft | 342 kts | 157° |
| 2026-05-04 19:25 | 49.51744 | -58.87957 | 19809 ft | 341 kts | 157° |
| 2026-05-04 19:25 | 49.49658 | -58.86336 | 19430 ft | 339 kts | 157° |
| 2026-05-04 19:25 | 49.47556 | -58.84702 | 19054 ft | 338 kts | 157° |
| 2026-05-04 19:26 | 49.45456 | -58.83074 | 18678 ft | 337 kts | 158° |
| 2026-05-04 19:26 | 49.43366 | -58.81452 | 18310 ft | 336 kts | 158° |
| 2026-05-04 19:26 | 49.41282 | -58.79838 | 17948 ft | 335 kts | 158° |
| 2026-05-04 19:26 | 49.39204 | -58.78228 | 17586 ft | 334 kts | 158° |
| 2026-05-04 19:27 | 49.37125 | -58.76633 | 17159 ft | 334 kts | 159° |
| 2026-05-04 19:27 | 49.35722 | -58.75554 | 16882 ft | 334 kts | 159° |
| 2026-05-04 19:27 | 49.33654 | -58.73950 | 16475 ft | 333 kts | 159° |
| 2026-05-04 19:27 | 49.31589 | -58.72350 | 16078 ft | 332 kts | 159° |
| 2026-05-04 19:28 | 49.28870 | -58.70251 | 15566 ft | 330 kts | 159° |
| 2026-05-04 19:28 | 49.26824 | -58.68673 | 15178 ft | 328 kts | 159° |
| 2026-05-04 19:28 | 49.24789 | -58.67107 | 14796 ft | 327 kts | 159° |
| 2026-05-04 19:28 | 49.23419 | -58.66054 | 14539 ft | 326 kts | 159° |
| 2026-05-04 19:29 | 49.21401 | -58.64505 | 14161 ft | 324 kts | 159° |
| 2026-05-04 19:29 | 49.19392 | -58.62967 | 13789 ft | 322 kts | 159° |
| 2026-05-04 19:29 | 49.17406 | -58.61412 | 13422 ft | 322 kts | 156° |
| 2026-05-04 19:29 | 49.15733 | -58.59124 | 13005 ft | 324 kts | 128° |
| 2026-05-04 19:30 | 49.14954 | -58.55993 | 12526 ft | 313 kts | 96° |
| 2026-05-04 19:30 | 49.15177 | -58.52787 | 12060 ft | 298 kts | 71° |
| 2026-05-04 19:30 | 49.15858 | -58.49866 | 11615 ft | 288 kts | 63° |
| 2026-05-04 19:30 | 49.16617 | -58.47073 | 11167 ft | 282 kts | 63° |
| 2026-05-04 19:31 | 49.17344 | -58.44312 | 10728 ft | 279 kts | 64° |
| 2026-05-04 19:31 | 49.18018 | -58.41552 | 10294 ft | 275 kts | 66° |
| 2026-05-04 19:31 | 49.18636 | -58.38807 | 9943 ft | 270 kts | 68° |
| 2026-05-04 19:31 | 49.19211 | -58.36097 | 9623 ft | 265 kts | 69° |
| 2026-05-04 19:32 | 49.19751 | -58.33431 | 9306 ft | 260 kts | 70° |
| 2026-05-04 19:32 | 49.20263 | -58.30802 | 8983 ft | 256 kts | 69° |
| 2026-05-04 19:32 | 49.20767 | -58.28196 | 8650 ft | 255 kts | 69° |
| 2026-05-04 19:32 | 49.21273 | -58.25601 | 8296 ft | 254 kts | 69° |
| 2026-05-04 19:33 | 49.21760 | -58.23017 | 7954 ft | 252 kts | 71° |
| 2026-05-04 19:33 | 49.22233 | -58.20452 | 7600 ft | 249 kts | 70° |
| 2026-05-04 19:33 | 49.22718 | -58.17920 | 7260 ft | 247 kts | 70° |
| 2026-05-04 19:33 | 49.23198 | -58.15413 | 6933 ft | 245 kts | 70° |
| 2026-05-04 19:34 | 49.23673 | -58.12925 | 6598 ft | 243 kts | 70° |
| 2026-05-04 19:34 | 49.24144 | -58.10449 | 6255 ft | 242 kts | 71° |
| 2026-05-04 19:34 | 49.24598 | -58.07975 | 5958 ft | 240 kts | 72° |
| 2026-05-04 19:34 | 49.25050 | -58.05529 | 5625 ft | 238 kts | 71° |
| 2026-05-04 19:35 | 49.25493 | -58.03106 | 5398 ft | 235 kts | 70° |
| 2026-05-04 19:35 | 49.25950 | -58.00726 | 5145 ft | 232 kts | 70° |
| 2026-05-04 19:35 | 49.26398 | -57.98393 | 4878 ft | 231 kts | 70° |
| 2026-05-04 19:35 | 49.26848 | -57.96005 | 4616 ft | 230 kts | 71° |
| 2026-05-04 19:36 | 49.27285 | -57.93657 | 4337 ft | 229 kts | 71° |
| 2026-05-04 19:36 | 49.27717 | -57.91355 | 4026 ft | 228 kts | 71° |
| 2026-05-04 19:36 | 49.28154 | -57.88991 | 3748 ft | 228 kts | 71° |
| 2026-05-04 19:36 | 49.28587 | -57.86663 | 3461 ft | 227 kts | 71° |
| 2026-05-04 19:37 | 49.29018 | -57.84338 | 3210 ft | 226 kts | 72° |
| 2026-05-04 19:37 | 49.29440 | -57.82023 | 2993 ft | 223 kts | 73° |
| 2026-05-04 19:37 | 49.29854 | -57.79804 | 3016 ft | 212 kts | 72° |
| 2026-05-04 19:37 | 49.30261 | -57.77656 | 3030 ft | 208 kts | 71° |
| 2026-05-04 19:38 | 49.30666 | -57.75544 | 3088 ft | 205 kts | 71° |
| 2026-05-04 19:38 | 49.31056 | -57.73455 | 3177 ft | 203 kts | 72° |
| 2026-05-04 19:38 | 49.31437 | -57.71384 | 3251 ft | 202 kts | 72° |
| 2026-05-04 19:38 | 49.31818 | -57.69304 | 3391 ft | 207 kts | 71° |
| 2026-05-04 19:39 | 49.32226 | -57.67116 | 3406 ft | 218 kts | 71° |
| 2026-05-04 19:39 | 49.32648 | -57.64844 | 3419 ft | 224 kts | 71° |
| 2026-05-04 19:39 | 49.33077 | -57.62501 | 3433 ft | 233 kts | 72° |
| 2026-05-04 19:39 | 49.33519 | -57.60070 | 3425 ft | 239 kts | 72° |
| 2026-05-04 19:40 | 49.33969 | -57.57595 | 3425 ft | 243 kts | 72° |
| 2026-05-04 19:40 | 49.34431 | -57.55088 | 3407 ft | 245 kts | 72° |
| 2026-05-04 19:40 | 49.34877 | -57.52559 | 3429 ft | 246 kts | 72° |
| 2026-05-04 19:40 | 49.35331 | -57.50025 | 3420 ft | 247 kts | 72° |
| 2026-05-04 19:41 | 49.35793 | -57.47490 | 3426 ft | 247 kts | 72° |
| 2026-05-04 19:41 | 49.36259 | -57.44952 | 3442 ft | 247 kts | 72° |
| 2026-05-04 19:41 | 49.36730 | -57.42418 | 3406 ft | 247 kts | 72° |
| 2026-05-04 19:41 | 49.37132 | -57.40032 | 3402 ft | 207 kts | 75° |
| 2026-05-04 19:42 | 49.37445 | -57.38094 | 3381 ft | 180 kts | 71° |
| 2026-05-04 19:42 | 49.37827 | -57.36211 | 3388 ft | 189 kts | 69° |
| 2026-05-04 19:42 | 49.38223 | -57.34219 | 3203 ft | 203 kts | 71° |
| 2026-05-04 19:42 | 49.38579 | -57.32152 | 2938 ft | 189 kts | 76° |
| 2026-05-04 19:43 | 49.38687 | -57.30251 | 2661 ft | 172 kts | 96° |
| 2026-05-04 19:43 | 49.38469 | -57.28517 | 2389 ft | 160 kts | 115° |
| 2026-05-04 19:43 | 49.37963 | -57.26951 | 2124 ft | 171 kts | 131° |
| 2026-05-04 19:43 | 49.37141 | -57.25740 | 2037 ft | 160 kts | 153° |
| 2026-05-04 19:44 | 49.36299 | -57.24598 | 2024 ft | 163 kts | 142° |
| 2026-05-04 19:44 | 49.35504 | -57.23359 | 2027 ft | 162 kts | 148° |
| 2026-05-04 19:44 | 49.34571 | -57.22498 | 2007 ft | 153 kts | 168° |
| 2026-05-04 19:44 | 49.33605 | -57.22163 | 2000 ft | 137 kts | 186° |
| 2026-05-04 19:45 | 49.32681 | -57.22231 | 2007 ft | 131 kts | 201° |
| 2026-05-04 19:45 | 49.31955 | -57.22921 | 2027 ft | 123 kts | 225° |
| 2026-05-04 19:45 | 49.31287 | -57.23743 | 2028 ft | 124 kts | 227° |
| 2026-05-04 19:45 | 49.30628 | -57.24594 | 2035 ft | 125 kts | 227° |
| 2026-05-04 19:46 | 49.29958 | -57.25448 | 2034 ft | 126 kts | 226° |
| 2026-05-04 19:46 | 49.29299 | -57.26270 | 2022 ft | 112 kts | 226° |
| 2026-05-04 19:46 | 49.28748 | -57.26955 | 1956 ft | 91 kts | 227° |
| 2026-05-04 19:46 | 49.28328 | -57.27512 | 1849 ft | 72 kts | 233° |
| 2026-05-04 19:47 | 49.27996 | -57.28047 | 1765 ft | 67 kts | 235° |
| 2026-05-04 19:47 | 49.27677 | -57.28587 | 1679 ft | 73 kts | 235° |
| 2026-05-04 19:47 | 49.27323 | -57.29187 | 1586 ft | 77 kts | 234° |
| 2026-05-04 19:47 | 49.26963 | -57.29792 | 1492 ft | 79 kts | 232° |
| 2026-05-04 19:48 | 49.26585 | -57.30401 | 1386 ft | 79 kts | 231° |
| 2026-05-04 19:48 | 49.26188 | -57.30987 | 1274 ft | 80 kts | 232° |
| 2026-05-04 19:48 | 49.25792 | -57.31604 | 1204 ft | 81 kts | 229° |
| 2026-05-04 19:48 | 49.25416 | -57.32240 | 1127 ft | 79 kts | 234° |
| 2026-05-04 19:49 | 49.25031 | -57.32847 | 1014 ft | 80 kts | 229° |
| 2026-05-04 19:49 | 49.24640 | -57.33483 | 893 ft | 82 kts | 229° |
| 2026-05-04 19:49 | 49.24253 | -57.34096 | 778 ft | 80 kts | 229° |
| 2026-05-04 19:49 | 49.23869 | -57.34736 | 666 ft | 84 kts | 229° |
| 2026-05-04 19:50 | 49.23446 | -57.35402 | 576 ft | 91 kts | 224° |
| 2026-05-04 19:50 | 49.23012 | -57.36122 | 440 ft | 90 kts | 229° |
| 2026-05-04 19:50 | 49.22575 | -57.36764 | 388 ft | 87 kts | 226° |
| 2026-05-04 19:50 | 49.22162 | -57.37449 | 256 ft | 89 kts | 226° |
| 2026-05-04 19:51 | 49.21743 | -57.38118 | 115 ft | 86 kts | 227° |
| 2026-05-04 19:51 | 49.21375 | -57.38710 | 48 ft | 63 kts | 226° |
| 2026-05-04 19:51 | 49.21154 | -57.39064 | 48 ft | 36 kts | 226° |
| 2026-05-04 19:51 | 49.21026 | -57.39284 | 51 ft | 13 kts | 276° |
| 2026-05-04 19:52 | 49.21101 | -57.39403 | 50 ft | 19 kts | 315° |
| 2026-05-04 19:52 | 49.21116 | -57.39426 | 53 ft | 0 kts | 311° |
| 2026-05-04 19:52 | 49.21122 | -57.39466 | 53 ft | 13 kts | 253° |
| 2026-05-04 19:53 | 49.21043 | -57.39609 | 52 ft | 19 kts | 226° |
| 2026-05-04 19:53 | 49.20995 | -57.39733 | 53 ft | 9 kts | 287° |
| 2026-05-04 19:53 | 49.20999 | -57.39792 | 53 ft | 0 kts | 144° |